createdAt,value
2023-04-22T00:01:39.600Z,100949.06
2023-04-22T00:04:07.462Z,100947.47
2023-04-22T00:06:34.003Z,100945.38
2023-04-22T00:09:00.435Z,100946.59
2023-04-22T00:11:27.081Z,100939.91
2023-04-22T00:13:53.641Z,100936.41
2023-04-22T00:16:20.248Z,100929.38
2023-04-22T00:18:46.658Z,100936.69
2023-04-22T00:21:13.151Z,100937.13
2023-04-22T00:23:39.609Z,100929.31
2023-04-22T00:26:06.012Z,100923.59
2023-04-22T00:28:32.840Z,100923.94
2023-04-22T00:30:59.481Z,100928.97
2023-04-22T00:33:25.899Z,100919.00
2023-04-22T00:35:54.506Z,100914.31
2023-04-22T00:38:21.114Z,100915.38
2023-04-22T00:40:47.506Z,100909.75
2023-04-22T00:43:14.787Z,100911.66
2023-04-22T00:45:42.538Z,100908.13
2023-04-22T00:48:09.400Z,100909.25
2023-04-22T00:50:35.838Z,100903.88
2023-04-22T00:53:02.219Z,100910.50
2023-04-22T00:55:28.704Z,100906.03
2023-04-22T00:57:55.636Z,100904.63
2023-04-22T01:00:27.028Z,100908.00
2023-04-22T01:02:55.038Z,100905.19
2023-04-22T01:05:21.816Z,100903.94
2023-04-22T01:07:48.236Z,100899.84
2023-04-22T01:10:14.707Z,100902.78
2023-04-22T01:12:41.091Z,100901.16
2023-04-22T01:15:08.844Z,100894.81
2023-04-22T01:17:35.615Z,100899.19
2023-04-22T01:20:04.265Z,100897.34
2023-04-22T01:22:36.980Z,100894.69
2023-04-22T01:25:04.061Z,100895.94
2023-04-22T01:27:30.868Z,100898.69
2023-04-22T01:29:57.329Z,100893.50
2023-04-22T01:32:24.207Z,100894.75
2023-04-22T01:34:50.597Z,100887.66
2023-04-22T01:37:18.016Z,100892.47
2023-04-22T01:39:44.753Z,100887.09
2023-04-22T01:42:11.704Z,100886.19
2023-04-22T01:44:38.068Z,100885.63
2023-04-22T01:47:05.270Z,100878.81
2023-04-22T01:49:31.694Z,100878.72
2023-04-22T01:51:58.360Z,100877.28
2023-04-22T01:54:24.794Z,100880.38
2023-04-22T01:56:54.953Z,100870.09
2023-04-22T01:59:22.016Z,100867.91
2023-04-22T02:01:48.392Z,100863.72
2023-04-22T02:04:14.839Z,100868.56
2023-04-22T02:06:41.189Z,100864.22
2023-04-22T02:09:07.632Z,100856.75
2023-04-22T02:11:33.999Z,100850.94
2023-04-22T02:14:00.379Z,100849.66
2023-04-22T02:16:26.827Z,100846.81
2023-04-22T02:18:53.243Z,100838.53
2023-04-22T02:21:19.650Z,100842.75
2023-04-22T02:23:46.137Z,100847.84
2023-04-22T02:26:12.500Z,100843.47
2023-04-22T02:28:38.885Z,100847.72
2023-04-22T02:31:05.438Z,100843.50
2023-04-22T02:33:31.861Z,100842.63
2023-04-22T02:35:58.222Z,100843.63
2023-04-22T02:38:24.591Z,100836.88
2023-04-22T02:40:50.978Z,100824.78
2023-04-22T02:43:17.373Z,100831.50
2023-04-22T02:45:43.795Z,100829.34
2023-04-22T02:48:10.286Z,100836.63
2023-04-22T02:50:36.752Z,100835.78
2023-04-22T02:53:03.127Z,100829.56
2023-04-22T02:55:29.539Z,100829.22
2023-04-22T02:57:55.911Z,100831.44
2023-04-22T03:00:22.368Z,100828.03
2023-04-22T03:02:48.921Z,100829.47
2023-04-22T03:05:15.971Z,100841.97
2023-04-22T03:07:42.423Z,100834.44
2023-04-22T03:10:09.287Z,100836.97
2023-04-22T03:12:35.648Z,100828.44
2023-04-22T03:15:02.502Z,100829.66
2023-04-22T03:17:28.992Z,100822.97
2023-04-22T03:19:55.808Z,100828.81
2023-04-22T03:22:22.204Z,100830.56
2023-04-22T03:24:48.578Z,100829.88
2023-04-22T03:27:14.932Z,100826.94
2023-04-22T03:29:41.683Z,100832.28
2023-04-22T03:32:08.357Z,100827.41
2023-04-22T03:34:36.957Z,100830.13
2023-04-22T03:37:03.662Z,100825.31
2023-04-22T03:39:30.044Z,100826.19
2023-04-22T03:41:56.394Z,100838.28
2023-04-22T03:44:22.752Z,100828.25
2023-04-22T03:46:49.123Z,100828.06
2023-04-22T03:49:15.911Z,100826.78
2023-04-22T03:51:42.264Z,100839.06
2023-04-22T03:54:08.933Z,100824.81
2023-04-22T03:56:35.324Z,100832.16
2023-04-22T03:59:01.714Z,100825.56
2023-04-22T04:01:28.124Z,100828.53
2023-04-22T04:03:54.764Z,100831.09
2023-04-22T04:06:21.688Z,100831.72
2023-04-22T04:08:48.108Z,100830.56
2023-04-22T04:11:14.600Z,100829.97
2023-04-22T04:13:41.018Z,100827.09
2023-04-22T04:16:07.495Z,100827.19
2023-04-22T04:18:33.940Z,100818.03
2023-04-22T04:21:00.285Z,100822.69
2023-04-22T04:23:27.165Z,100831.22
2023-04-22T04:25:54.240Z,100829.78
2023-04-22T04:28:20.638Z,100824.41
2023-04-22T04:30:47.140Z,100823.31
2023-04-22T04:33:16.680Z,100824.63
2023-04-22T04:35:44.723Z,100815.91
2023-04-22T04:38:12.741Z,100825.09
2023-04-22T04:40:39.128Z,100826.22
2023-04-22T04:43:08.423Z,100817.00
2023-04-22T04:45:39.059Z,100827.34
2023-04-22T04:48:08.989Z,100826.94
2023-04-22T04:50:35.637Z,100827.75
2023-04-22T04:53:02.373Z,100821.81
2023-04-22T04:55:28.760Z,100834.00
2023-04-22T04:57:55.143Z,100824.81
2023-04-22T05:00:21.553Z,100828.16
2023-04-22T05:02:48.142Z,100829.97
2023-04-22T05:05:14.589Z,100835.03
2023-04-22T05:07:40.949Z,100831.34
2023-04-22T05:10:07.826Z,100832.75
2023-04-22T05:12:34.262Z,100826.59
2023-04-22T05:15:00.948Z,100832.34
2023-04-22T05:17:27.876Z,100825.78
2023-04-22T05:19:54.412Z,100827.00
2023-04-22T05:22:20.790Z,100829.72
2023-04-22T05:24:47.230Z,100827.38
2023-04-22T05:27:13.793Z,100827.00
2023-04-22T05:29:40.565Z,100823.16
2023-04-22T05:32:08.796Z,100824.00
2023-04-22T05:34:35.741Z,100830.41
2023-04-22T05:37:05.752Z,100830.47
2023-04-22T05:39:32.369Z,100828.84
2023-04-22T05:41:58.802Z,100828.13
2023-04-22T05:44:25.180Z,100830.59
2023-04-22T05:46:51.601Z,100823.78
2023-04-22T05:49:17.972Z,100829.53
2023-04-22T05:51:44.335Z,100833.72
2023-04-22T05:54:10.716Z,100830.31
2023-04-22T05:56:37.193Z,100830.31
2023-04-22T05:59:03.673Z,100830.38
2023-04-22T06:01:30.049Z,100836.13
2023-04-22T06:03:57.401Z,100830.03
2023-04-22T06:06:24.144Z,100834.31
2023-04-22T06:08:50.627Z,100828.69
2023-04-22T06:11:16.979Z,100834.56
2023-04-22T06:13:43.382Z,100837.06
2023-04-22T06:16:09.785Z,100832.66
2023-04-22T06:18:38.029Z,100829.94
2023-04-22T06:21:05.098Z,100833.31
2023-04-22T06:23:31.469Z,100834.78
2023-04-22T06:25:58.526Z,100839.50
2023-04-22T06:28:24.968Z,100840.41
2023-04-22T06:30:51.421Z,100842.31
2023-04-22T06:33:17.808Z,100837.38
2023-04-22T06:35:44.612Z,100840.03
2023-04-22T06:38:11.123Z,100840.69
2023-04-22T06:40:37.496Z,100829.91
2023-04-22T06:43:03.863Z,100835.00
2023-04-22T06:45:30.247Z,100840.31
2023-04-22T06:47:56.654Z,100831.06
2023-04-22T06:50:23.078Z,100825.25
2023-04-22T06:52:49.600Z,100828.78
2023-04-22T06:55:15.979Z,100821.72
2023-04-22T06:57:42.497Z,100825.78
2023-04-22T07:00:09.176Z,100827.06
2023-04-22T07:02:35.808Z,100824.28
2023-04-22T07:05:02.303Z,100825.59
2023-04-22T07:07:29.108Z,100819.94
2023-04-22T07:09:55.522Z,100818.66
2023-04-22T07:12:21.953Z,100824.84
2023-04-22T07:14:49.435Z,100823.22
2023-04-22T07:17:19.198Z,100824.63
2023-04-22T07:19:45.641Z,100828.56
2023-04-22T07:22:12.059Z,100835.59
2023-04-22T07:24:39.247Z,100831.09
2023-04-22T07:27:05.765Z,100818.59
2023-04-22T07:29:32.133Z,100816.03
2023-04-22T07:31:58.531Z,100824.19
2023-04-22T07:34:24.902Z,100818.38
2023-04-22T07:36:54.357Z,100815.25
2023-04-22T07:39:20.810Z,100811.31
2023-04-22T07:41:47.201Z,100807.50
2023-04-22T07:44:17.260Z,100805.72
2023-04-22T07:46:43.888Z,100810.72
2023-04-22T07:49:10.372Z,100803.78
2023-04-22T07:51:36.781Z,100801.16
2023-04-22T07:54:03.203Z,100800.78
2023-04-22T07:56:29.585Z,100812.16
2023-04-22T07:58:55.970Z,100794.88
2023-04-22T08:01:22.410Z,100794.03
2023-04-22T08:03:49.214Z,100792.13
2023-04-22T08:06:15.768Z,100788.81
2023-04-22T08:08:42.130Z,100780.94
2023-04-22T08:11:08.713Z,100778.63
2023-04-22T08:13:35.133Z,100780.78
2023-04-22T08:16:04.592Z,100780.72
2023-04-22T08:18:31.057Z,100783.47
2023-04-22T08:20:57.435Z,100783.38
2023-04-22T08:23:23.818Z,100770.06
2023-04-22T08:25:50.241Z,100773.56
2023-04-22T08:28:16.658Z,100768.41
2023-04-22T08:30:43.015Z,100776.44
2023-04-22T08:33:09.545Z,100765.25
2023-04-22T08:35:36.563Z,100767.09
2023-04-22T08:38:03.012Z,100769.88
2023-04-22T08:40:29.553Z,100771.66
2023-04-22T08:42:56.035Z,100764.78
2023-04-22T08:45:22.753Z,100767.44
2023-04-22T08:47:50.060Z,100766.69
2023-04-22T08:50:16.523Z,100764.94
2023-04-22T08:52:43.527Z,100763.31
2023-04-22T08:55:09.898Z,100762.31
2023-04-22T08:57:38.268Z,100766.72
2023-04-22T09:00:05.664Z,100762.47
2023-04-22T09:02:33.236Z,100757.13
2023-04-22T09:05:02.128Z,100752.72
2023-04-22T09:07:31.000Z,100762.56
2023-04-22T09:09:58.227Z,100760.78
2023-04-22T09:12:25.737Z,100761.69
2023-04-22T09:14:52.954Z,100746.66
2023-04-22T09:17:30.885Z,100748.47
2023-04-22T09:20:01.721Z,100745.75
2023-04-22T09:22:29.714Z,100747.59
2023-04-22T09:24:56.080Z,100743.16
2023-04-22T09:27:24.985Z,100741.41
2023-04-22T09:29:52.702Z,100732.53
2023-04-22T09:32:19.385Z,100741.34
2023-04-22T09:34:51.854Z,100732.50
2023-04-22T09:37:26.435Z,100721.84
2023-04-22T09:39:57.263Z,100725.38
2023-04-22T09:42:23.694Z,100725.38
2023-04-22T09:44:54.754Z,100720.91
2023-04-22T09:47:23.549Z,100718.19
2023-04-22T09:49:50.452Z,100719.16
2023-04-22T09:52:26.897Z,100720.00
2023-04-22T09:54:54.509Z,100706.63
2023-04-22T09:57:21.373Z,100706.59
2023-04-22T09:59:51.202Z,100706.44
2023-04-22T10:02:17.667Z,100695.19
2023-04-22T10:04:44.345Z,100699.50
2023-04-22T10:07:10.750Z,100696.78
2023-04-22T10:09:37.400Z,100697.66
2023-04-22T10:12:05.107Z,100691.25
2023-04-22T10:14:31.475Z,100693.13
2023-04-22T10:17:00.628Z,100691.19
2023-04-22T10:19:27.934Z,100685.00
2023-04-22T10:22:01.087Z,100682.28
2023-04-22T10:24:28.881Z,100674.13
2023-04-22T10:26:59.982Z,100672.44
2023-04-22T10:29:27.752Z,100664.28
2023-04-22T10:31:59.382Z,100666.22
2023-04-22T10:34:25.841Z,100653.63
2023-04-22T10:37:00.142Z,100645.38
2023-04-22T10:39:28.517Z,100649.78
2023-04-22T10:42:06.948Z,100651.19
2023-04-22T10:45:01.813Z,100648.44
2023-04-22T10:47:35.906Z,100636.13
2023-04-22T10:50:12.250Z,100640.78
2023-04-22T10:52:39.614Z,100637.22
2023-04-22T10:55:06.154Z,100635.41
2023-04-22T10:57:38.200Z,100638.38
2023-04-22T11:00:24.162Z,100634.91
2023-04-22T11:03:05.701Z,100638.78
2023-04-22T11:05:32.587Z,100632.94
2023-04-22T11:08:08.723Z,100632.72
2023-04-22T11:10:58.986Z,100631.47
2023-04-22T11:13:25.360Z,100625.78
2023-04-22T11:15:55.685Z,100615.22
2023-04-22T11:18:27.038Z,100612.00
2023-04-22T11:20:54.462Z,100614.75
2023-04-22T11:23:23.924Z,100609.81
2023-04-22T11:25:57.647Z,100605.00
2023-04-22T11:28:24.163Z,100593.22
2023-04-22T11:30:51.155Z,100606.31
2023-04-22T11:33:20.585Z,100604.41
2023-04-22T11:35:49.270Z,100592.38
2023-04-22T11:38:15.672Z,100609.03
2023-04-22T11:40:46.216Z,100598.72
2023-04-22T11:43:13.548Z,100598.31
2023-04-22T11:45:43.312Z,100596.41
2023-04-22T11:48:11.545Z,100594.75
2023-04-22T11:50:44.047Z,100588.56
2023-04-22T11:53:16.611Z,100586.03
2023-04-22T11:55:45.320Z,100585.91
2023-04-22T11:58:15.389Z,100586.44
2023-04-22T12:00:46.787Z,100576.81
2023-04-22T12:03:24.889Z,100582.97
2023-04-22T12:05:58.745Z,100574.53
2023-04-22T12:08:30.231Z,100573.22
2023-04-22T12:10:58.792Z,100570.91
2023-04-22T12:13:30.471Z,100570.47
2023-04-22T12:16:01.770Z,100573.50
2023-04-22T12:18:36.479Z,100580.28
2023-04-22T12:21:13.593Z,100577.50
2023-04-22T12:23:50.622Z,100575.31
2023-04-22T12:26:19.611Z,100565.50
2023-04-22T12:28:47.001Z,100565.03
2023-04-22T12:31:14.879Z,100558.41
2023-04-22T12:33:41.743Z,100559.59
2023-04-22T12:36:08.330Z,100555.66
2023-04-22T12:38:35.065Z,100566.06
2023-04-22T12:41:02.752Z,100555.97
2023-04-22T12:43:29.215Z,100556.19
2023-04-22T12:45:55.739Z,100544.03
2023-04-22T12:48:23.395Z,100549.25
2023-04-22T12:50:49.783Z,100540.03
2023-04-22T12:53:16.604Z,100542.38
2023-04-22T12:55:45.861Z,100547.31
2023-04-22T12:58:12.535Z,100547.31
2023-04-22T13:00:38.899Z,100537.31
2023-04-22T13:03:05.373Z,100536.72
2023-04-22T13:05:32.350Z,100547.59
2023-04-22T13:08:06.610Z,100543.09
2023-04-22T13:10:33.965Z,100539.50
2023-04-22T13:13:16.088Z,100534.06
2023-04-22T13:15:44.799Z,100529.09
2023-04-22T13:18:11.202Z,100508.41
2023-04-22T13:20:39.771Z,100515.22
2023-04-22T13:23:06.152Z,100510.91
2023-04-22T13:25:32.524Z,100517.13
2023-04-22T13:27:58.913Z,100508.94
2023-04-22T13:30:25.375Z,100503.47
2023-04-22T13:32:51.999Z,100509.53
2023-04-22T13:35:18.645Z,100505.03
2023-04-22T13:37:46.206Z,100497.22
2023-04-22T13:40:12.778Z,100493.47
2023-04-22T13:42:39.185Z,100504.16
2023-04-22T13:45:06.235Z,100490.06
2023-04-22T13:47:32.635Z,100483.59
2023-04-22T13:50:00.702Z,100482.06
2023-04-22T13:52:27.183Z,100468.44
2023-04-22T13:54:54.385Z,100467.66
2023-04-22T13:57:20.828Z,100459.22
2023-04-22T13:59:47.214Z,100463.31
2023-04-22T14:02:13.630Z,100463.16
2023-04-22T14:04:39.990Z,100460.06
2023-04-22T14:07:06.664Z,100455.19
2023-04-22T14:09:34.439Z,100451.72
2023-04-22T14:12:01.367Z,100451.69
2023-04-22T14:14:27.729Z,100449.47
2023-04-22T14:16:54.287Z,100450.13
2023-04-22T14:19:21.234Z,100435.59
2023-04-22T14:21:47.624Z,100449.31
2023-04-22T14:24:14.386Z,100442.63
2023-04-22T14:26:41.066Z,100437.38
2023-04-22T14:29:09.002Z,100435.84
2023-04-22T14:31:35.442Z,100430.44
2023-04-22T14:34:01.886Z,100439.78
2023-04-22T14:36:28.266Z,100434.03
2023-04-22T14:38:54.640Z,100428.69
2023-04-22T14:41:21.596Z,100420.44
2023-04-22T14:43:48.020Z,100421.00
2023-04-22T14:46:14.402Z,100411.25
2023-04-22T14:48:40.796Z,100421.16
2023-04-22T14:51:07.160Z,100416.28
2023-04-22T14:53:33.987Z,100413.25
2023-04-22T14:56:00.548Z,100420.88
2023-04-22T14:58:31.601Z,100409.53
2023-04-22T15:00:59.720Z,100412.44
2023-04-22T15:03:26.651Z,100401.16
2023-04-22T15:05:54.716Z,100398.47
2023-04-22T15:08:21.567Z,100401.47
2023-04-22T15:10:47.964Z,100409.19
2023-04-22T15:13:14.458Z,100395.13
2023-04-22T15:15:40.880Z,100391.00
2023-04-22T15:18:07.381Z,100388.72
2023-04-22T15:20:33.850Z,100393.84
2023-04-22T15:23:01.249Z,100384.97
2023-04-22T15:25:27.611Z,100395.75
2023-04-22T15:27:56.476Z,100392.91
2023-04-22T15:30:23.616Z,100377.72
2023-04-22T15:32:50.040Z,100375.97
2023-04-22T15:35:16.465Z,100378.78
2023-04-22T15:37:44.997Z,100377.88
2023-04-22T15:40:11.590Z,100374.69
2023-04-22T15:42:37.973Z,100374.88
2023-04-22T15:45:04.943Z,100363.56
2023-04-22T15:47:31.494Z,100359.03
2023-04-22T15:50:05.932Z,100356.16
2023-04-22T15:52:33.142Z,100362.22
2023-04-22T15:55:01.493Z,100361.16
2023-04-22T15:57:28.438Z,100362.84
2023-04-22T16:00:06.787Z,100343.41
2023-04-22T16:02:36.837Z,100343.72
2023-04-22T16:05:04.152Z,100341.19
2023-04-22T16:07:30.986Z,100343.66
2023-04-22T16:09:57.435Z,100339.53
2023-04-22T16:12:23.854Z,100339.16
2023-04-22T16:14:50.285Z,100335.13
2023-04-22T16:17:16.942Z,100330.94
2023-04-22T16:19:43.604Z,100330.63
2023-04-22T16:22:10.529Z,100336.03
2023-04-22T16:24:36.949Z,100335.03
2023-04-22T16:27:03.554Z,100325.81
2023-04-22T16:29:29.946Z,100326.31
2023-04-22T16:31:56.594Z,100319.69
2023-04-22T16:34:22.967Z,100318.00
2023-04-22T16:36:49.362Z,100312.19
2023-04-22T16:39:15.766Z,100318.81
2023-04-22T16:41:43.217Z,100311.66
2023-04-22T16:44:09.609Z,100316.72
2023-04-22T16:46:36.040Z,100313.78
2023-04-22T16:49:02.469Z,100319.81
2023-04-22T16:51:28.854Z,100317.22
2023-04-22T16:53:55.871Z,100320.31
2023-04-22T16:56:24.056Z,100319.34
2023-04-22T16:58:50.475Z,100320.59
2023-04-22T17:01:16.917Z,100323.81
2023-04-22T17:03:43.597Z,100304.34
2023-04-22T17:06:10.243Z,100310.66
2023-04-22T17:08:36.613Z,100304.69
2023-04-22T17:11:03.087Z,100306.25
2023-04-22T17:13:29.475Z,100312.16
2023-04-22T17:15:56.007Z,100306.06
2023-04-22T17:18:22.441Z,100310.31
2023-04-22T17:20:49.181Z,100301.09
2023-04-22T17:23:15.716Z,100298.31
2023-04-22T17:25:42.178Z,100305.50
2023-04-22T17:28:08.851Z,100306.63
2023-04-22T17:30:36.075Z,100301.28
2023-04-22T17:33:02.638Z,100302.66
2023-04-22T17:35:29.228Z,100303.00
2023-04-22T17:37:57.710Z,100303.13
2023-04-22T17:40:24.098Z,100305.91
2023-04-22T17:42:51.127Z,100311.75
2023-04-22T17:45:17.533Z,100300.69
2023-04-22T17:47:43.929Z,100309.94
2023-04-22T17:50:10.684Z,100317.16
2023-04-22T17:52:37.122Z,100307.22
2023-04-22T17:55:03.640Z,100311.03
2023-04-22T17:57:31.082Z,100311.13
2023-04-22T17:59:57.471Z,100307.69
2023-04-22T18:02:25.114Z,100310.41
2023-04-22T18:04:51.763Z,100313.03
2023-04-22T18:07:18.166Z,100308.78
2023-04-22T18:09:44.734Z,100313.38
2023-04-22T18:12:11.183Z,100313.47
2023-04-22T18:14:37.590Z,100305.94
2023-04-22T18:17:04.356Z,100316.44
2023-04-22T18:19:30.944Z,100315.78
2023-04-22T18:22:00.387Z,100316.72
2023-04-22T18:24:27.494Z,100320.28
2023-04-22T18:26:53.906Z,100316.91
2023-04-22T18:29:20.756Z,100325.56
2023-04-22T18:31:47.342Z,100321.25
2023-04-22T18:34:15.580Z,100326.72
2023-04-22T18:36:41.998Z,100325.84
2023-04-22T18:39:09.460Z,100323.25
2023-04-22T18:41:37.953Z,100326.75
2023-04-22T18:44:04.781Z,100317.94
2023-04-22T18:46:31.231Z,100326.81
2023-04-22T18:48:57.707Z,100328.66
2023-04-22T18:51:24.109Z,100325.16
2023-04-22T18:53:50.715Z,100326.03
2023-04-22T18:56:17.089Z,100334.09
2023-04-22T18:58:43.458Z,100342.06
2023-04-22T19:01:09.927Z,100336.75
2023-04-22T19:03:36.552Z,100336.75
2023-04-22T19:06:03.389Z,100337.63
2023-04-22T19:08:29.762Z,100335.84
2023-04-22T19:10:56.151Z,100335.06
2023-04-22T19:13:29.095Z,100337.78
2023-04-22T19:15:56.593Z,100332.44
2023-04-22T19:18:23.223Z,100332.50
2023-04-22T19:20:49.817Z,100325.44
2023-04-22T19:23:16.336Z,100330.78
2023-04-22T19:25:42.755Z,100325.47
2023-04-22T19:28:09.285Z,100330.81
2023-04-22T19:30:35.677Z,100322.84
2023-04-22T19:33:02.214Z,100325.50
2023-04-22T19:35:28.634Z,100326.41
2023-04-22T19:37:55.004Z,100315.78
2023-04-22T19:40:21.397Z,100316.69
2023-04-22T19:42:47.775Z,100311.41
2023-04-22T19:45:14.139Z,100314.06
2023-04-22T19:47:40.913Z,100311.41
2023-04-22T19:50:08.529Z,100306.09
2023-04-22T19:52:35.796Z,100309.63
2023-04-22T19:55:08.767Z,100305.22
2023-04-22T19:57:36.883Z,100299.94
2023-04-22T20:00:07.100Z,100305.28
2023-04-22T20:02:37.475Z,100302.56
2023-04-22T20:05:05.604Z,100296.44
2023-04-22T20:07:33.352Z,100295.59
2023-04-22T20:10:02.199Z,100290.25
2023-04-22T20:12:29.401Z,100290.28
2023-04-22T20:14:59.970Z,100288.50
2023-04-22T20:17:27.326Z,100284.09
2023-04-22T20:19:54.720Z,100284.09
2023-04-22T20:22:24.949Z,100282.34
2023-04-22T20:25:01.949Z,100280.56
2023-04-22T20:27:32.610Z,100285.88
2023-04-22T20:30:00.273Z,100278.81
2023-04-22T20:32:28.059Z,100271.72
2023-04-22T20:34:55.639Z,100272.63
2023-04-22T20:37:23.203Z,100269.06
2023-04-22T20:39:50.438Z,100268.22
2023-04-22T20:42:17.853Z,100274.38
2023-04-22T20:44:44.564Z,100271.72
2023-04-22T20:47:11.274Z,100261.13
2023-04-22T20:49:42.868Z,100260.28
2023-04-22T20:52:10.922Z,100258.50
2023-04-22T20:54:38.073Z,100257.63
2023-04-22T20:57:05.870Z,100253.19
2023-04-22T20:59:32.869Z,100257.63
2023-04-22T21:02:00.418Z,100257.63
2023-04-22T21:04:27.785Z,100252.31
2023-04-22T21:06:55.462Z,100257.63
2023-04-22T21:09:26.083Z,100247.00
2023-04-22T21:11:53.054Z,100250.56
2023-04-22T21:14:22.056Z,100259.38
2023-04-22T21:16:56.691Z,100257.59
2023-04-22T21:19:23.506Z,100241.69
2023-04-22T21:21:51.106Z,100247.91
2023-04-22T21:24:18.480Z,100242.56
2023-04-22T21:26:47.405Z,100243.44
2023-04-22T21:29:13.942Z,100238.13
2023-04-22T21:31:40.465Z,100237.31
2023-04-22T21:34:09.514Z,100236.38
2023-04-22T21:36:35.900Z,100241.69
2023-04-22T21:39:04.505Z,100238.19
2023-04-22T21:41:31.406Z,100229.31
2023-04-22T21:43:57.817Z,100241.72
2023-04-22T21:46:24.575Z,100235.50
2023-04-22T21:48:51.021Z,100231.06
2023-04-22T21:51:17.481Z,100236.38
2023-04-22T21:53:44.488Z,100230.22
2023-04-22T21:56:11.080Z,100229.34
2023-04-22T21:58:37.520Z,100223.13
2023-04-22T22:01:04.043Z,100228.44
2023-04-22T22:03:31.609Z,100226.66
2023-04-22T22:05:58.122Z,100228.44
2023-04-22T22:08:24.534Z,100230.22
2023-04-22T22:10:51.108Z,100222.25
2023-04-22T22:13:17.531Z,100221.41
2023-04-22T22:15:44.096Z,100223.16
2023-04-22T22:18:10.588Z,100220.50
2023-04-22T22:20:36.954Z,100224.03
2023-04-22T22:23:04.321Z,100229.34
2023-04-22T22:25:30.779Z,100220.50
2023-04-22T22:27:57.150Z,100222.25
2023-04-22T22:30:23.814Z,100224.03
2023-04-22T22:32:50.396Z,100227.56
2023-04-22T22:35:16.765Z,100225.81
2023-04-22T22:37:44.541Z,100231.06
2023-04-22T22:40:11.727Z,100224.88
2023-04-22T22:42:38.089Z,100231.94
2023-04-22T22:45:05.167Z,100225.75
2023-04-22T22:47:31.732Z,100221.31
2023-04-22T22:49:58.162Z,100223.13
2023-04-22T22:52:24.576Z,100227.53
2023-04-22T22:54:51.932Z,100225.78
2023-04-22T22:57:18.307Z,100229.25
2023-04-22T22:59:44.684Z,100223.91
2023-04-22T23:02:11.394Z,100213.34
2023-04-22T23:04:39.410Z,100215.97
2023-04-22T23:07:06.031Z,100212.47
2023-04-22T23:09:32.424Z,100207.22
2023-04-22T23:11:58.798Z,100203.69
2023-04-22T23:14:28.153Z,100204.47
2023-04-22T23:16:54.584Z,100204.50
2023-04-22T23:19:21.138Z,100194.78
2023-04-22T23:21:48.697Z,100203.56
2023-04-22T23:24:15.797Z,100189.47
2023-04-22T23:26:43.012Z,100189.50
2023-04-22T23:29:09.556Z,100185.91
2023-04-22T23:31:36.262Z,100173.56
2023-04-22T23:34:05.214Z,100181.50
2023-04-22T23:36:33.701Z,100182.34
2023-04-22T23:39:00.832Z,100178.84
2023-04-22T23:41:27.458Z,100174.41
2023-04-22T23:43:53.927Z,100177.03
2023-04-22T23:46:20.500Z,100178.84
2023-04-22T23:48:47.249Z,100183.22
2023-04-22T23:51:16.271Z,100176.06
2023-04-22T23:53:43.893Z,100180.50
2023-04-22T23:56:11.095Z,100182.22
2023-04-22T23:58:37.685Z,100177.69
